Time;durP1;ratioP1;P1;durP2;ratioP2;P2;SDS_P1;SDS_P2;PMS_P1;PMS_P2;Temp;Humidity;BMP_temperature;BMP_pressure;BME280_temperature;BME280_humidity;BME280_pressure;Samples;Min_cycle;Max_cycle;Signal;HPM_P1;HPM_P2
2023/10/27 00:00:27;;;;;;;1999.90;999.90;;;;;;;9.77;100.00;95732.97;18634487;31;20079;-59
2023/10/27 00:10:29;;;;;;;1999.90;999.90;;;;;;;9.72;100.00;95733.91;18615082;31;20048;-58
2023/10/27 00:20:32;;;;;;;1999.90;999.90;;;;;;;9.72;100.00;95727.72;18616332;31;20093;-59
2023/10/27 00:30:35;;;;;;;1999.90;999.90;;;;;;;9.58;100.00;95727.81;18617522;31;20067;-59
2023/10/27 00:40:37;;;;;;;1999.90;999.90;;;;;;;9.69;100.00;95733.72;18631621;31;20108;-59
2023/10/27 00:50:40;;;;;;;1999.90;999.90;;;;;;;9.44;100.00;95722.53;18616795;31;20044;-59
2023/10/27 01:00:43;;;;;;;1999.90;999.90;;;;;;;9.14;100.00;95736.50;18630362;31;20447;-58
2023/10/27 01:10:46;;;;;;;1999.90;999.90;;;;;;;9.10;100.00;95730.13;18615346;31;20049;-59
2023/10/27 01:20:48;;;;;;;1999.90;999.90;;;;;;;9.22;100.00;95704.50;18629026;31;20071;-59
2023/10/27 01:30:51;;;;;;;1999.90;999.90;;;;;;;9.33;100.00;95695.03;18628533;31;20074;-59
2023/10/27 01:40:53;;;;;;;1999.90;999.90;;;;;;;9.26;100.00;95682.00;18612941;31;20393;-58
2023/10/27 01:50:55;;;;;;;1999.90;999.90;;;;;;;9.16;100.00;95684.97;18613121;31;20086;-59
2023/10/27 02:00:58;;;;;;;1999.90;999.90;;;;;;;9.24;100.00;95683.41;18620063;31;20390;-59
2023/10/27 02:11:01;;;;;;;1999.90;999.90;;;;;;;9.37;100.00;95682.50;18612240;31;20056;-59
2023/10/27 02:21:04;;;;;;;1999.90;999.90;;;;;;;9.41;100.00;95661.91;18625840;31;20036;-59
2023/10/27 02:31:06;;;;;;;1999.90;999.90;;;;;;;9.30;100.00;95647.09;18625477;31;20346;-59
2023/10/27 02:41:10;;;;;;;1999.90;999.90;;;;;;;9.39;100.00;95650.66;18610708;31;20075;-59
2023/10/27 02:51:13;;;;;;;1999.90;999.90;;;;;;;9.38;100.00;95649.03;18632486;31;20078;-59
2023/10/27 03:01:15;;;;;;;1999.90;999.90;;;;;;;9.43;100.00;95643.53;18623434;31;20105;-59
2023/10/27 03:11:18;;;;;;;1999.90;999.90;;;;;;;9.43;100.00;95638.12;18622568;31;20048;-59
2023/10/27 03:21:20;;;;;;;1999.90;999.90;;;;;;;9.33;100.00;95643.78;18636407;31;20071;-59
2023/10/27 03:31:22;;;;;;;1999.90;999.90;;;;;;;9.16;100.00;95650.69;18636082;31;20061;-59
2023/10/27 03:41:25;;;;;;;1999.90;999.90;;;;;;;9.36;100.00;95690.91;18634857;31;20117;-59
2023/10/27 03:51:27;;;;;;;1999.90;999.90;;;;;;;9.34;100.00;95699.31;18628036;31;20075;-59
2023/10/27 04:01:30;;;;;;;1999.90;999.90;;;;;;;9.55;100.00;95717.66;18633667;31;20048;-59
2023/10/27 04:11:32;;;;;;;1999.90;999.90;;;;;;;9.80;100.00;95751.25;18619552;31;20436;-59
2023/10/27 04:21:34;;;;;;;1999.90;999.90;;;;;;;9.94;100.00;95786.25;18605620;31;20092;-58
2023/10/27 04:31:37;;;;;;;1999.90;999.90;;;;;;;9.84;100.00;95806.22;18632317;31;20148;-59
2023/10/27 04:41:40;;;;;;;1999.90;999.90;;;;;;;9.73;100.00;95834.53;18631472;31;20052;-59
2023/10/27 04:51:43;;;;;;;1999.90;999.90;;;;;;;9.59;100.00;95842.72;18631023;31;20057;-59
2023/10/27 05:01:46;;;;;;;1999.90;999.90;;;;;;;9.50;100.00;95877.75;18630369;31;20048;-59
2023/10/27 05:11:49;;;;;;;1999.90;999.90;;;;;;;9.47;100.00;95894.56;18629130;31;20079;-59
2023/10/27 05:21:52;;;;;;;1999.90;999.90;;;;;;;9.47;100.00;95908.06;18629005;31;20092;-58
2023/10/27 05:31:55;;;;;;;1999.90;999.90;;;;;;;9.54;100.00;95919.22;18628472;31;20491;-59
2023/10/27 05:41:58;;;;;;;1999.90;999.90;;;;;;;9.50;100.00;95910.91;18620915;31;20096;-59
2023/10/27 05:52:03;;;;;;;1999.90;999.90;;;;;;;9.43;100.00;95929.44;18627554;31;20103;-58
2023/10/27 06:02:06;;;;;;;1999.90;999.90;;;;;;;9.34;100.00;95933.97;18626941;31;20053;-58
2023/10/27 06:12:17;;;;;;;1999.90;999.90;;;;;;;9.15;100.00;95959.19;18626557;31;20398;-58
2023/10/27 06:22:20;;;;;;;1999.90;999.90;;;;;;;9.19;100.00;95990.94;18612411;31;20092;-59
2023/10/27 06:32:23;;;;;;;1999.90;999.90;;;;;;;9.20;100.00;96014.91;18625746;31;20083;-58
2023/10/27 06:42:27;;;;;;;1999.90;999.90;;;;;;;8.98;100.00;96012.91;18625222;31;20077;-58
2023/10/27 06:52:32;;;;;;;1999.90;999.90;;;;;;;9.10;100.00;96040.16;18611060;31;20053;-59
2023/10/27 07:02:35;;;;;;;1999.90;999.90;;;;;;;9.31;100.00;96059.41;18624711;31;20452;-59
2023/10/27 07:12:57;;;;;;;1999.90;999.90;;;;;;;9.40;100.00;96064.91;18610084;31;20048;-59
2023/10/27 07:23:00;;;;;;;1999.90;999.90;;;;;;;9.57;100.00;96066.97;18609628;31;20103;-59
2023/10/27 07:33:04;;;;;;;1999.90;999.90;;;;;;;9.80;100.00;96072.44;18618383;31;20056;-59
2023/10/27 07:43:07;;;;;;;1999.90;999.90;;;;;;;10.01;100.00;96060.06;18634949;31;20111;-59
2023/10/27 07:53:10;;;;;;;1999.90;999.90;;;;;;;10.23;100.00;96036.06;18635283;31;20044;-59
2023/10/27 08:03:14;;;;;;;1999.90;999.90;;;;;;;10.51;100.00;96051.06;18634024;31;20060;-58
2023/10/27 08:13:20;;;;;;;1999.90;999.90;;;;;;;10.50;100.00;96057.56;18619617;31;20067;-58
2023/10/27 08:23:24;;;;;;;1999.90;999.90;;;;;;;10.50;100.00;96068.37;18632922;31;20043;-59
2023/10/27 08:33:28;;;;;;;1999.90;999.90;;;;;;;10.39;100.00;96083.25;18632693;31;20084;-59
2023/10/27 08:43:32;;;;;;;1999.90;999.90;;;;;;;10.37;100.00;96109.75;18616495;31;20085;-59
2023/10/27 08:53:45;;;;;;;1999.90;999.90;;;;;;;10.24;100.00;96116.00;18630813;31;20099;-58
2023/10/27 09:04:09;;;;;;;1999.90;999.90;;;;;;;10.06;100.00;96121.25;18630639;31;20447;-59
2023/10/27 09:14:26;;;;;;;1999.90;999.90;;;;;;;10.13;100.00;96129.72;18630242;31;20139;-59
2023/10/27 09:24:29;;;;;;;1999.90;999.90;;;;;;;10.46;100.00;96142.25;18622467;31;20443;-58
2023/10/27 09:34:34;;;;;;;1999.90;999.90;;;;;;;10.94;100.00;96146.22;18628553;31;20079;-58
2023/10/27 09:45:02;;;;;;;1999.90;999.90;;;;;;;11.30;100.00;96164.22;18627767;31;20037;-59
2023/10/27 09:55:05;;;;;;;1999.90;999.90;;;;;;;11.58;100.00;96169.41;18613014;31;20044;-58
2023/10/27 10:05:18;;;;;;;1999.90;999.90;;;;;;;11.48;100.00;96184.84;18626841;31;20048;-59
2023/10/27 10:15:22;;;;;;;1999.90;999.90;;;;;;;11.38;100.00;96190.53;18626328;31;20081;-58
2023/10/27 10:25:25;;;;;;;1999.90;999.90;;;;;;;11.18;100.00;96195.38;18611611;31;20052;-59
2023/10/27 10:35:30;;;;;;;1999.90;999.90;;;;;;;11.60;100.00;96178.03;18625914;31;20057;-58
2023/10/27 10:45:44;;;;;;;1999.90;999.90;;;;;;;11.51;100.00;96173.38;18610356;31;20067;-58
2023/10/27 10:55:48;;;;;;;1999.90;999.90;;;;;;;11.45;100.00;96173.84;18610696;31;20072;-59
2023/10/27 11:05:54;;;;;;;1999.90;999.90;;;;;;;11.55;100.00;96183.59;18624588;31;20048;-58
2023/10/27 11:16:02;;;;;;;1999.90;999.90;;;;;;;11.44;100.00;96181.16;18629299;31;20075;-58
2023/10/27 11:26:05;;;;;;;1999.90;999.90;;;;;;;11.53;100.00;96178.50;18622220;31;20048;-58
2023/10/27 11:36:13;;;;;;;1999.90;999.90;;;;;;;11.64;100.00;96170.88;18635956;31;20052;-58
2023/10/27 11:46:21;;;;;;;1999.90;999.90;;;;;;;11.70;100.00;96146.06;18620611;31;20498;-58
2023/10/27 11:56:24;;;;;;;1999.90;999.90;;;;;;;11.54;100.00;96147.59;18634783;31;20479;-59
2023/10/27 12:06:27;;;;;;;1999.90;999.90;;;;;;;11.51;100.00;96146.31;18619958;31;20064;-59
2023/10/27 12:16:30;;;;;;;1999.90;999.90;;;;;;;11.87;100.00;96137.16;18605773;31;20075;-58
2023/10/27 12:26:35;;;;;;;1999.90;999.90;;;;;;;12.18;100.00;96125.47;18632355;31;20056;-59
2023/10/27 12:36:38;;;;;;;1999.90;999.90;;;;;;;13.17;100.00;96147.47;18632093;31;20091;-59
2023/10/27 12:46:44;;;;;;;1999.90;999.90;;;;;;;12.81;100.00;96141.38;18616362;31;20064;-59
2023/10/27 12:56:49;;;;;;;1999.90;999.90;;;;;;;12.67;100.00;96157.00;18631119;31;20100;-59
2023/10/27 13:06:52;;;;;;;1999.90;999.90;;;;;;;12.25;100.00;96145.84;18623457;31;20444;-59
2023/10/27 13:16:55;;;;;;;1999.90;999.90;;;;;;;12.12;100.00;96128.63;18629819;31;20459;-59
2023/10/27 13:26:58;;;;;;;1999.90;999.90;;;;;;;11.99;100.00;96122.22;18629149;31;20052;-58
2023/10/27 13:37:04;;;;;;;1999.90;999.90;;;;;;;11.98;100.00;96126.06;18613299;31;20056;-58
2023/10/27 13:47:09;;;;;;;1999.90;999.90;;;;;;;11.78;100.00;96117.41;18627497;31;20071;-58
2023/10/27 13:57:13;;;;;;;1999.90;999.90;;;;;;;11.53;100.00;96127.06;18627218;31;20056;-58
2023/10/27 14:07:16;;;;;;;1999.90;999.90;;;;;;;11.57;100.00;96116.41;18626799;31;20086;-58
2023/10/27 14:17:20;;;;;;;1999.90;999.90;;;;;;;11.87;100.00;96126.34;18612051;31;20089;-58
2023/10/27 14:27:24;;;;;;;1999.90;999.90;;;;;;;12.31;100.00;96139.16;18612000;31;20086;-58
2023/10/27 14:37:28;;;;;;;1999.90;999.90;;;;;;;12.42;100.00;96145.84;18610723;31;20401;-58
2023/10/27 14:47:31;;;;;;;1999.90;999.90;;;;;;;12.11;100.00;96154.91;18634045;31;20057;-58
2023/10/27 14:57:45;;;;;;;;;;;;;;;11.80;100.00;96158.50;18625860;31;20070;-58
2023/10/27 15:07:49;;;;;;;1999.90;999.90;;;;;;;12.08;100.00;96162.91;18638221;31;20003;-58
2023/10/27 15:17:53;;;;;;;;;;;;;;;12.06;100.00;96152.37;18637465;31;20045;-58
2023/10/27 15:27:58;;;;;;;1999.90;999.90;;;;;;;11.58;100.00;96155.88;18637466;31;19943;-58
2023/10/27 15:38:03;;;;;;;1999.90;999.90;;;;;;;11.26;100.00;96153.22;18636001;31;20053;-59
2023/10/27 15:48:06;;;;;;;;;;;;;;;10.90;100.00;96137.13;18619627;31;20436;-58
2023/10/27 15:58:10;;;;;;;1999.90;999.90;;;;;;;10.79;100.00;96137.37;18630089;31;19963;-58
2023/10/27 16:08:13;;;;;;;1999.90;999.90;;;;;;;10.61;100.00;96144.59;18633944;31;20394;-59
2023/10/27 16:18:19;;;;;;;1999.90;999.90;;;;;;;10.45;100.00;96148.75;18633614;31;20049;-58
2023/10/27 16:28:22;;;;;;;1999.90;999.90;;;;;;;10.08;100.00;96127.13;18618479;31;20115;-58
2023/10/27 16:38:24;;;;;;;1999.90;999.90;;;;;;;9.95;100.00;96128.00;18632088;31;20338;-58
2023/10/27 16:48:27;;;;;;;1999.90;999.90;;;;;;;9.80;100.00;96119.13;18631788;31;20126;-58
2023/10/27 16:58:30;;;;;;;1999.90;999.90;;;;;;;9.50;100.00;96117.88;18616371;31;20082;-58
2023/10/27 17:08:33;;;;;;;1999.90;999.90;;;;;;;9.33;100.00;96121.16;18615111;31;20048;-58
2023/10/27 17:18:39;;;;;;;1999.90;999.90;;;;;;;9.17;100.00;96117.97;18615139;31;20488;-58
2023/10/27 17:28:42;;;;;;;1999.90;999.90;;;;;;;9.08;100.00;96106.28;18629250;31;20119;-58
2023/10/27 17:38:45;;;;;;;1999.90;999.90;;;;;;;8.94;100.00;96114.34;18607203;31;20414;-58
2023/10/27 17:48:48;;;;;;;1999.90;999.90;;;;;;;8.88;100.00;96120.91;18561328;32;20116;-58
2023/10/27 17:58:52;;;;;;;1999.90;999.90;;;;;;;8.80;100.00;96114.31;18561964;32;20074;-58
2023/10/27 18:08:55;;;;;;;1999.90;999.90;;;;;;;8.85;100.00;96116.91;18560349;32;20076;-58
2023/10/27 18:18:58;;;;;;;1999.90;999.90;;;;;;;8.73;100.00;96125.50;18560692;31;20064;-58
2023/10/27 18:29:02;;;;;;;1999.90;999.90;;;;;;;8.71;100.00;96127.66;18560642;31;20071;-59
2023/10/27 18:39:06;;;;;;;1999.90;999.90;;;;;;;8.73;100.00;96128.19;18559091;32;20104;-59
2023/10/27 18:49:09;;;;;;;1999.90;999.90;;;;;;;8.88;100.00;96134.38;18558798;32;20361;-58
2023/10/27 18:59:13;;;;;;;1999.90;999.90;;;;;;;9.03;100.00;96134.13;18559615;31;20056;-58
2023/10/27 19:09:16;;;;;;;1999.90;999.90;;;;;;;9.07;100.00;96151.31;18559321;31;20097;-58
2023/10/27 19:19:19;;;;;;;1999.90;999.90;;;;;;;9.12;100.00;96170.06;18557656;32;20041;-58
2023/10/27 19:29:21;;;;;;;1999.90;999.90;;;;;;;9.04;100.00;96184.25;18560248;31;20103;-58
2023/10/27 19:39:24;;;;;;;1999.90;999.90;;;;;;;9.08;100.00;96225.69;18569362;32;20041;-58
2023/10/27 19:49:33;;;;;;;1999.90;999.90;;;;;;;9.23;100.00;96250.81;18630590;31;20384;-59
2023/10/27 19:59:36;;;;;;;1999.90;999.90;;;;;;;9.32;100.00;96294.88;18635263;31;20057;-59
2023/10/27 20:09:39;;;;;;;1999.90;999.90;;;;;;;9.19;100.00;96333.41;18633898;31;20052;-59
2023/10/27 20:19:42;;;;;;;1999.90;999.90;;;;;;;8.93;100.00;96345.34;18626633;31;20387;-59
2023/10/27 20:29:47;;;;;;;1999.90;999.90;;;;;;;8.86;100.00;96350.31;18633066;31;20090;-59
2023/10/27 20:39:49;;;;;;;1999.90;999.90;;;;;;;8.71;100.00;96354.00;18632054;31;20431;-59
2023/10/27 20:49:52;;;;;;;1999.90;999.90;;;;;;;8.73;100.00;96354.53;18631624;31;20060;-59
2023/10/27 20:59:55;;;;;;;1999.90;999.90;;;;;;;8.65;100.00;96387.53;18630988;31;20056;-58
2023/10/27 21:09:58;;;;;;;1999.90;999.90;;;;;;;8.61;100.00;96424.22;18630327;31;20116;-59
2023/10/27 21:20:04;;;;;;;1999.90;999.90;;;;;;;8.56;100.00;96429.66;18615185;31;20067;-59
2023/10/27 21:30:09;;;;;;;1999.90;999.90;;;;;;;8.48;100.00;96426.50;18629206;31;20111;-58
2023/10/27 21:40:12;;;;;;;1999.90;999.90;;;;;;;8.40;100.00;96427.13;18613961;31;20074;-59
2023/10/27 21:50:16;;;;;;;1999.90;999.90;;;;;;;8.48;100.00;96448.06;18627861;31;20048;-59
2023/10/27 22:00:37;;;;;;;1999.90;999.90;;;;;;;8.44;100.00;96447.00;18626768;31;20060;-58
2023/10/27 22:10:50;;;;;;;1999.90;999.90;;;;;;;8.22;100.00;96447.50;18605598;31;20052;-59
2023/10/27 22:21:13;;;;;;;1999.90;999.90;;;;;;;8.05;100.00;96458.69;18626184;31;20052;-59
2023/10/27 22:31:16;;;;;;;1999.90;999.90;;;;;;;8.03;100.00;96474.34;18625972;31;20052;-59
2023/10/27 22:41:19;;;;;;;1999.90;999.90;;;;;;;8.09;100.00;96488.53;18610625;31;20136;-59
2023/10/27 22:51:22;;;;;;;1999.90;999.90;;;;;;;8.13;100.00;96476.91;18611004;31;20134;-59
2023/10/27 23:01:25;;;;;;;1999.90;999.90;;;;;;;7.89;100.00;96479.53;18610777;31;20048;-59
2023/10/27 23:11:28;;;;;;;1999.90;999.90;;;;;;;7.88;100.00;96488.72;18635894;31;20052;-59
2023/10/27 23:21:30;;;;;;;1999.90;999.90;;;;;;;7.95;100.00;96483.81;18623171;31;20070;-59
2023/10/27 23:31:33;;;;;;;1999.90;999.90;;;;;;;8.06;100.00;96494.50;18622422;31;20153;-59
2023/10/27 23:41:36;;;;;;;1999.90;999.90;;;;;;;7.98;100.00;96493.22;18620429;31;20101;-58
2023/10/27 23:51:39;;;;;;;1999.90;999.90;;;;;;;8.18;100.00;96521.03;18635432;31;20094;-59
